createdAt,value
2022-08-21T00:02:17.357Z,16.71
2022-08-21T00:04:55.841Z,16.62
2022-08-21T00:07:26.261Z,16.64
2022-08-21T00:09:53.958Z,16.52
2022-08-21T00:12:22.226Z,16.49
2022-08-21T00:14:50.154Z,16.41
2022-08-21T00:17:19.148Z,16.45
2022-08-21T00:19:47.085Z,16.44
2022-08-21T00:22:14.995Z,16.30
2022-08-21T00:24:42.851Z,16.18
2022-08-21T00:27:10.527Z,16.12
2022-08-21T00:29:40.875Z,16.14
2022-08-21T00:32:09.563Z,16.05
2022-08-21T00:34:38.564Z,16.10
2022-08-21T00:37:06.555Z,16.06
2022-08-21T00:39:34.363Z,16.20
2022-08-21T00:42:02.300Z,16.14
2022-08-21T00:44:30.014Z,16.14
2022-08-21T00:46:57.966Z,16.07
2022-08-21T00:49:25.598Z,15.96
2022-08-21T00:51:59.823Z,15.94
2022-08-21T00:54:29.997Z,15.90
2022-08-21T00:57:00.893Z,15.98
2022-08-21T00:59:31.995Z,15.95
2022-08-21T01:01:59.822Z,15.86
2022-08-21T01:04:27.752Z,15.78
2022-08-21T01:06:56.960Z,15.76
2022-08-21T01:09:24.642Z,15.83
2022-08-21T01:11:52.719Z,15.81
2022-08-21T01:14:20.631Z,15.88
2022-08-21T01:16:53.207Z,15.96
2022-08-21T01:19:22.830Z,16.02
2022-08-21T01:21:52.151Z,15.90
2022-08-21T01:24:20.189Z,15.86
2022-08-21T01:26:48.237Z,15.78
2022-08-21T01:29:21.926Z,15.80
2022-08-21T01:31:49.698Z,15.75
2022-08-21T01:34:17.650Z,15.67
2022-08-21T01:36:46.223Z,15.65
2022-08-21T01:39:16.492Z,15.64
2022-08-21T01:41:44.425Z,15.69
2022-08-21T01:44:12.082Z,15.77
2022-08-21T01:46:39.756Z,15.57
2022-08-21T01:49:07.817Z,15.65
2022-08-21T01:51:35.518Z,15.58
2022-08-21T01:54:03.205Z,15.54
2022-08-21T01:56:39.174Z,15.48
2022-08-21T01:59:06.975Z,15.42
2022-08-21T02:01:34.724Z,15.28
2022-08-21T02:04:02.847Z,15.34
2022-08-21T02:06:30.721Z,15.42
2022-08-21T02:08:58.690Z,15.34
2022-08-21T02:11:26.463Z,15.32
2022-08-21T02:13:55.514Z,15.40
2022-08-21T02:16:23.160Z,15.29
2022-08-21T02:18:51.058Z,15.29
2022-08-21T02:21:18.724Z,15.15
2022-08-21T02:23:46.488Z,15.08
2022-08-21T02:26:14.584Z,14.99
2022-08-21T02:28:43.542Z,15.00
2022-08-21T02:31:13.334Z,14.94
2022-08-21T02:33:41.505Z,14.90
2022-08-21T02:36:10.842Z,14.87
2022-08-21T02:38:39.787Z,14.91
2022-08-21T02:41:09.545Z,14.87
2022-08-21T02:43:37.630Z,14.95
2022-08-21T02:46:07.359Z,14.82
2022-08-21T02:48:37.698Z,14.78
2022-08-21T02:51:08.765Z,14.71
2022-08-21T02:53:39.902Z,14.80
2022-08-21T02:56:10.254Z,14.62
2022-08-21T02:58:42.571Z,14.62
2022-08-21T03:01:10.627Z,14.70
2022-08-21T03:03:41.824Z,14.65
2022-08-21T03:06:10.802Z,14.63
2022-08-21T03:08:39.483Z,14.61
2022-08-21T03:11:07.746Z,14.60
2022-08-21T03:13:37.912Z,14.73
2022-08-21T03:16:05.757Z,14.76
2022-08-21T03:18:40.037Z,14.75
2022-08-21T03:21:08.289Z,14.64
2022-08-21T03:23:36.373Z,14.58
2022-08-21T03:26:05.406Z,14.64
2022-08-21T03:28:33.311Z,14.68
2022-08-21T03:31:01.371Z,14.59
2022-08-21T03:33:29.150Z,14.57
2022-08-21T03:36:03.919Z,14.54
2022-08-21T03:38:33.777Z,14.56
2022-08-21T03:41:02.209Z,14.60
2022-08-21T03:43:31.138Z,14.69
2022-08-21T03:46:00.531Z,14.72
2022-08-21T03:48:28.169Z,14.64
2022-08-21T03:50:55.828Z,14.62
2022-08-21T03:53:25.467Z,14.66
2022-08-21T03:55:54.004Z,14.66
2022-08-21T03:58:25.564Z,14.61
2022-08-21T04:00:56.421Z,14.56
2022-08-21T04:03:24.611Z,14.58
2022-08-21T04:05:52.299Z,14.61
2022-08-21T04:08:20.542Z,14.51
2022-08-21T04:10:53.126Z,14.51
2022-08-21T04:13:21.863Z,14.42
2022-08-21T04:15:49.702Z,14.48
2022-08-21T04:18:17.859Z,14.47
2022-08-21T04:20:50.243Z,14.43
2022-08-21T04:23:24.303Z,14.49
2022-08-21T04:25:55.057Z,14.41
2022-08-21T04:28:23.337Z,14.48
2022-08-21T04:30:52.802Z,14.52
2022-08-21T04:33:21.048Z,14.51
2022-08-21T04:35:49.573Z,14.49
2022-08-21T04:38:17.173Z,14.44
2022-08-21T04:40:45.341Z,14.53
2022-08-21T04:43:14.486Z,14.64
2022-08-21T04:45:45.208Z,14.60
2022-08-21T04:48:16.133Z,14.56
2022-08-21T04:50:48.453Z,14.47
2022-08-21T04:53:19.701Z,14.41
2022-08-21T04:55:49.034Z,14.41
2022-08-21T04:58:20.930Z,14.52
2022-08-21T05:00:49.186Z,14.63
2022-08-21T05:03:19.535Z,14.88
2022-08-21T05:05:47.438Z,14.96
2022-08-21T05:08:18.277Z,15.18
2022-08-21T05:10:46.783Z,15.16
2022-08-21T05:13:15.730Z,15.13
2022-08-21T05:15:44.715Z,15.05
2022-08-21T05:18:12.413Z,15.23
2022-08-21T05:20:40.399Z,15.38
2022-08-21T05:23:09.841Z,15.84
2022-08-21T05:25:38.198Z,16.28
2022-08-21T05:28:06.756Z,16.19
2022-08-21T05:30:34.782Z,16.46
2022-08-21T05:33:06.100Z,16.37
2022-08-21T05:35:34.554Z,16.22
2022-08-21T05:38:02.451Z,16.37
2022-08-21T05:40:30.406Z,16.27
2022-08-21T05:42:59.982Z,16.40
2022-08-21T05:45:41.653Z,16.58
2022-08-21T05:48:16.977Z,16.31
2022-08-21T05:50:46.089Z,16.35
2022-08-21T05:53:14.944Z,16.59
2022-08-21T05:55:46.063Z,16.62
2022-08-21T05:58:15.465Z,16.60
2022-08-21T06:00:43.552Z,16.71
2022-08-21T06:03:18.027Z,16.91
2022-08-21T06:05:46.435Z,17.39
2022-08-21T06:08:15.613Z,17.67
2022-08-21T06:10:43.874Z,18.02
2022-08-21T06:13:11.601Z,18.75
2022-08-21T06:15:39.540Z,18.54
2022-08-21T06:18:07.626Z,18.47
2022-08-21T06:20:37.353Z,18.30
2022-08-21T06:23:06.791Z,18.17
2022-08-21T06:25:34.601Z,18.45
2022-08-21T06:28:03.665Z,18.50
2022-08-21T06:30:31.427Z,18.90
2022-08-21T06:32:59.665Z,19.15
2022-08-21T06:35:29.796Z,19.63
2022-08-21T06:37:59.534Z,20.04
2022-08-21T06:40:27.729Z,20.34
2022-08-21T06:42:58.252Z,20.56
2022-08-21T06:45:28.328Z,20.80
2022-08-21T06:48:00.550Z,21.27
2022-08-21T06:50:28.398Z,21.89
2022-08-21T06:53:03.063Z,22.73
2022-08-21T06:55:30.773Z,23.35
2022-08-21T06:57:58.493Z,23.66
2022-08-21T07:00:26.800Z,24.15
2022-08-21T07:02:54.614Z,24.51
2022-08-21T07:05:23.206Z,24.51
2022-08-21T07:07:50.830Z,24.71
2022-08-21T07:10:24.556Z,24.71
2022-08-21T07:12:59.533Z,24.64
2022-08-21T07:15:30.671Z,25.01
2022-08-21T07:17:59.077Z,25.55
2022-08-21T07:20:27.616Z,26.32
2022-08-21T07:22:55.818Z,26.69
2022-08-21T07:25:24.898Z,26.69
2022-08-21T07:27:52.608Z,26.39
2022-08-21T07:30:20.489Z,26.62
2022-08-21T07:32:50.320Z,26.87
2022-08-21T07:35:18.415Z,26.72
2022-08-21T07:37:46.729Z,26.82
2022-08-21T07:40:14.781Z,26.82
2022-08-21T07:42:45.365Z,27.25
2022-08-21T07:45:13.703Z,28.02
2022-08-21T07:47:42.918Z,28.13
2022-08-21T07:50:13.068Z,27.66
2022-08-21T07:52:41.271Z,28.16
2022-08-21T07:55:10.238Z,27.37
2022-08-21T07:57:38.194Z,27.54
2022-08-21T08:00:09.782Z,27.86
2022-08-21T08:02:37.592Z,28.23
2022-08-21T08:05:08.280Z,28.83
2022-08-21T08:07:36.420Z,29.21
2022-08-21T08:10:05.247Z,29.55
2022-08-21T08:12:33.058Z,29.75
2022-08-21T08:15:02.249Z,29.13
2022-08-21T08:17:33.121Z,28.70
2022-08-21T08:20:01.677Z,28.24
2022-08-21T08:22:29.433Z,28.77
2022-08-21T08:24:57.830Z,28.51
2022-08-21T08:27:25.784Z,28.96
2022-08-21T08:29:53.839Z,29.74
2022-08-21T08:32:22.150Z,29.78
2022-08-21T08:34:52.586Z,29.84
2022-08-21T08:37:21.536Z,30.26
2022-08-21T08:39:53.019Z,29.56
2022-08-21T08:42:27.311Z,29.64
2022-08-21T08:45:05.440Z,29.94
2022-08-21T08:47:36.758Z,29.94
2022-08-21T08:50:11.755Z,29.73
2022-08-21T08:52:45.343Z,29.37
2022-08-21T08:55:17.525Z,29.49
2022-08-21T08:57:49.370Z,29.07
2022-08-21T09:00:21.590Z,28.74
2022-08-21T09:02:50.807Z,29.64
2022-08-21T09:05:25.624Z,30.47
2022-08-21T09:08:10.009Z,30.20
2022-08-21T09:10:47.628Z,30.09
2022-08-21T09:13:25.938Z,30.67
2022-08-21T09:16:03.139Z,30.83
2022-08-21T09:18:44.642Z,30.15
2022-08-21T09:21:20.233Z,30.16
2022-08-21T09:23:56.843Z,30.44
2022-08-21T09:26:27.326Z,30.56
2022-08-21T09:28:58.702Z,30.81
2022-08-21T09:31:30.021Z,30.13
2022-08-21T09:34:02.674Z,29.99
2022-08-21T09:36:39.057Z,30.59
2022-08-21T09:39:08.287Z,30.21
2022-08-21T09:41:38.013Z,30.57
2022-08-21T09:44:07.036Z,30.78
2022-08-21T09:46:36.566Z,30.87
2022-08-21T09:49:06.965Z,30.58
2022-08-21T09:51:55.159Z,31.02
2022-08-21T09:54:30.832Z,31.99
2022-08-21T09:57:18.735Z,30.99
2022-08-21T09:59:49.529Z,30.77
2022-08-21T10:02:36.365Z,31.23
2022-08-21T10:05:09.499Z,31.42
2022-08-21T10:07:40.132Z,31.49
2022-08-21T10:10:11.463Z,31.57
2022-08-21T10:12:47.313Z,31.21
2022-08-21T10:15:22.060Z,31.16
2022-08-21T10:18:00.428Z,31.41
2022-08-21T10:20:39.619Z,31.72
2022-08-21T10:23:29.078Z,31.54
2022-08-21T10:26:13.334Z,32.31
2022-08-21T10:28:48.697Z,32.14
2022-08-21T10:31:28.508Z,33.01
2022-08-21T10:34:08.804Z,31.61
2022-08-21T10:36:44.119Z,31.33
2022-08-21T10:39:35.130Z,31.61
2022-08-21T10:42:28.410Z,31.00
2022-08-21T10:45:04.766Z,31.18
2022-08-21T10:47:36.984Z,31.01
2022-08-21T10:50:12.830Z,30.66
2022-08-21T10:52:54.399Z,31.05
2022-08-21T10:55:27.082Z,30.47
2022-08-21T10:58:00.938Z,30.63
2022-08-21T11:00:35.708Z,31.68
2022-08-21T11:03:09.294Z,32.04
2022-08-21T11:05:47.537Z,31.58
2022-08-21T11:08:23.650Z,32.32
2022-08-21T11:10:59.235Z,32.39
2022-08-21T11:13:35.170Z,32.50
2022-08-21T11:16:09.454Z,31.06
2022-08-21T11:18:41.764Z,31.88
2022-08-21T11:21:26.687Z,31.51
2022-08-21T11:23:59.899Z,32.11
2022-08-21T11:26:35.454Z,32.53
2022-08-21T11:29:10.965Z,32.46
2022-08-21T11:31:54.142Z,32.31
2022-08-21T11:34:37.528Z,32.77
2022-08-21T11:37:16.072Z,32.43
2022-08-21T11:39:52.972Z,32.69
2022-08-21T11:42:30.639Z,32.30
2022-08-21T11:45:21.041Z,33.70
2022-08-21T11:47:58.529Z,33.94
2022-08-21T11:50:34.316Z,33.56
2022-08-21T11:53:11.116Z,32.47
2022-08-21T11:55:44.541Z,32.48
2022-08-21T11:58:21.206Z,32.04
2022-08-21T12:00:53.378Z,32.87
2022-08-21T12:03:29.716Z,33.34
2022-08-21T12:06:00.367Z,33.76
2022-08-21T12:08:30.828Z,33.75
2022-08-21T12:11:05.100Z,33.40
2022-08-21T12:13:40.258Z,33.60
2022-08-21T12:16:12.698Z,33.42
2022-08-21T12:18:40.562Z,33.97
2022-08-21T12:21:23.678Z,34.09
2022-08-21T12:24:02.932Z,33.94
2022-08-21T12:26:32.750Z,33.14
2022-08-21T12:29:28.813Z,32.32
2022-08-21T12:32:00.133Z,32.84
2022-08-21T12:34:35.913Z,31.79
2022-08-21T12:37:08.038Z,31.57
2022-08-21T12:39:40.452Z,30.72
2022-08-21T12:42:18.598Z,30.91
2022-08-21T12:44:52.899Z,31.07
2022-08-21T12:47:31.807Z,31.68
2022-08-21T12:50:05.690Z,31.56
2022-08-21T12:52:39.502Z,31.30
2022-08-21T12:55:09.479Z,30.97
2022-08-21T12:57:39.710Z,31.54
2022-08-21T13:00:12.971Z,31.42
2022-08-21T13:02:45.924Z,31.12
2022-08-21T13:05:18.216Z,30.83
2022-08-21T13:07:48.648Z,31.83
2022-08-21T13:10:20.972Z,32.26
2022-08-21T13:12:49.278Z,31.64
2022-08-21T13:15:26.943Z,31.73
2022-08-21T13:18:03.739Z,31.93
2022-08-21T13:20:35.218Z,31.64
2022-08-21T13:23:07.846Z,31.64
2022-08-21T13:25:38.653Z,31.83
2022-08-21T13:28:09.911Z,31.78
2022-08-21T13:30:44.241Z,30.94
2022-08-21T13:33:13.490Z,31.21
2022-08-21T13:35:50.394Z,30.98
2022-08-21T13:38:19.227Z,30.86
2022-08-21T13:40:51.065Z,31.29
2022-08-21T13:43:23.269Z,30.97
2022-08-21T13:45:54.887Z,30.84
2022-08-21T13:48:25.683Z,31.13
2022-08-21T13:50:54.450Z,31.85
2022-08-21T13:53:32.389Z,31.89
2022-08-21T13:56:01.576Z,32.07
2022-08-21T13:58:33.112Z,32.55
2022-08-21T14:01:06.433Z,32.53
2022-08-21T14:03:38.218Z,32.26
2022-08-21T14:06:14.649Z,32.20
2022-08-21T14:08:43.872Z,31.20
2022-08-21T14:11:14.186Z,31.57
2022-08-21T14:13:44.616Z,31.72
2022-08-21T14:16:19.073Z,31.72
2022-08-21T14:18:49.600Z,31.77
2022-08-21T14:21:29.153Z,31.40
2022-08-21T14:24:09.915Z,31.44
2022-08-21T14:26:47.938Z,31.49
2022-08-21T14:29:18.047Z,31.42
2022-08-21T14:31:52.761Z,31.74
2022-08-21T14:34:20.862Z,31.53
2022-08-21T14:36:50.230Z,31.83
2022-08-21T14:39:18.318Z,31.82
2022-08-21T14:41:49.218Z,32.13
2022-08-21T14:44:18.551Z,32.14
2022-08-21T14:46:56.556Z,32.08
2022-08-21T14:49:28.635Z,31.59
2022-08-21T14:51:59.012Z,31.58
2022-08-21T14:54:31.099Z,31.31
2022-08-21T14:57:01.418Z,31.04
2022-08-21T14:59:29.385Z,31.39
2022-08-21T15:01:58.372Z,31.09
2022-08-21T15:04:26.613Z,31.36
2022-08-21T15:06:54.349Z,31.27
2022-08-21T15:09:22.028Z,30.91
2022-08-21T15:11:50.075Z,31.16
2022-08-21T15:14:23.323Z,31.50
2022-08-21T15:16:52.130Z,31.35
2022-08-21T15:19:21.739Z,31.09
2022-08-21T15:21:50.148Z,31.04
2022-08-21T15:24:18.011Z,31.53
2022-08-21T15:26:46.943Z,31.88
2022-08-21T15:29:15.035Z,32.00
2022-08-21T15:31:54.248Z,31.80
2022-08-21T15:34:27.237Z,32.07
2022-08-21T15:36:57.202Z,31.25
2022-08-21T15:39:25.383Z,31.62
2022-08-21T15:41:58.882Z,31.60
2022-08-21T15:44:28.290Z,31.22
2022-08-21T15:46:57.080Z,31.11
2022-08-21T15:49:26.799Z,30.92
2022-08-21T15:51:54.506Z,30.13
2022-08-21T15:54:22.210Z,30.24
2022-08-21T15:56:52.502Z,30.02
2022-08-21T15:59:23.438Z,30.71
2022-08-21T16:01:52.593Z,30.73
2022-08-21T16:04:24.766Z,30.45
2022-08-21T16:06:59.224Z,30.32
2022-08-21T16:09:29.873Z,30.23
2022-08-21T16:11:57.985Z,30.18
2022-08-21T16:14:25.957Z,29.92
2022-08-21T16:16:54.713Z,29.99
2022-08-21T16:19:22.607Z,29.94
2022-08-21T16:21:50.477Z,29.80
2022-08-21T16:24:19.465Z,29.42
2022-08-21T16:26:47.446Z,29.47
2022-08-21T16:29:27.732Z,29.42
2022-08-21T16:31:55.630Z,29.20
2022-08-21T16:34:23.291Z,29.12
2022-08-21T16:36:51.011Z,29.05
2022-08-21T16:39:20.231Z,29.15
2022-08-21T16:41:50.832Z,29.22
2022-08-21T16:44:19.704Z,29.39
2022-08-21T16:46:47.857Z,29.51
2022-08-21T16:49:15.568Z,29.50
2022-08-21T16:51:43.412Z,29.38
2022-08-21T16:54:11.593Z,29.34
2022-08-21T16:56:44.555Z,29.26
2022-08-21T16:59:14.807Z,29.25
2022-08-21T17:01:46.482Z,28.91
2022-08-21T17:04:14.331Z,28.95
2022-08-21T17:06:42.200Z,29.06
2022-08-21T17:09:09.950Z,28.93
2022-08-21T17:11:42.670Z,28.71
2022-08-21T17:14:13.686Z,28.63
2022-08-21T17:16:45.619Z,28.59
2022-08-21T17:19:14.001Z,28.58
2022-08-21T17:21:41.930Z,28.60
2022-08-21T17:24:09.874Z,28.56
2022-08-21T17:26:38.444Z,28.36
2022-08-21T17:29:09.936Z,28.28
2022-08-21T17:31:39.977Z,28.15
2022-08-21T17:34:08.106Z,27.98
2022-08-21T17:36:35.799Z,27.69
2022-08-21T17:39:04.806Z,27.65
2022-08-21T17:41:32.768Z,27.51
2022-08-21T17:44:06.177Z,27.47
2022-08-21T17:46:35.447Z,27.45
2022-08-21T17:49:03.117Z,27.31
2022-08-21T17:51:30.875Z,27.25
2022-08-21T17:54:01.139Z,27.16
2022-08-21T17:56:33.173Z,27.13
2022-08-21T17:59:00.963Z,26.96
2022-08-21T18:01:33.143Z,26.90
2022-08-21T18:04:02.578Z,26.88
2022-08-21T18:06:30.286Z,26.64
2022-08-21T18:08:58.264Z,26.27
2022-08-21T18:11:28.457Z,25.94
2022-08-21T18:14:05.054Z,25.69
2022-08-21T18:16:37.570Z,25.46
2022-08-21T18:19:10.547Z,25.24
2022-08-21T18:21:39.118Z,25.00
2022-08-21T18:24:07.398Z,24.88
2022-08-21T18:26:38.868Z,24.72
2022-08-21T18:29:09.722Z,24.56
2022-08-21T18:31:38.949Z,24.49
2022-08-21T18:34:13.660Z,24.40
2022-08-21T18:36:42.818Z,24.15
2022-08-21T18:39:34.870Z,23.99
2022-08-21T18:42:00.346Z,23.85
2022-08-21T18:44:28.907Z,23.76
2022-08-21T18:46:59.785Z,23.63
2022-08-21T18:49:29.922Z,23.58
2022-08-21T18:51:58.212Z,23.55
2022-08-21T18:54:26.497Z,23.33
2022-08-21T18:56:55.185Z,23.28
2022-08-21T18:59:24.171Z,23.23
2022-08-21T19:01:53.156Z,23.13
2022-08-21T19:04:42.969Z,23.03
2022-08-21T19:07:13.610Z,22.77
2022-08-21T19:09:42.815Z,22.71
2022-08-21T19:12:15.562Z,22.63
2022-08-21T19:14:43.489Z,22.54
2022-08-21T19:17:11.349Z,22.46
2022-08-21T19:19:39.373Z,22.36
2022-08-21T19:22:11.170Z,22.25
2022-08-21T19:24:49.956Z,22.10
2022-08-21T19:27:18.923Z,22.14
2022-08-21T19:29:46.964Z,21.99
2022-08-21T19:32:14.866Z,21.88
2022-08-21T19:34:43.110Z,21.90
2022-08-21T19:37:16.178Z,21.74
2022-08-21T19:39:48.800Z,21.73
2022-08-21T19:42:21.269Z,21.66
2022-08-21T19:44:53.020Z,21.64
2022-08-21T19:47:29.509Z,21.53
2022-08-21T19:50:00.229Z,21.48
2022-08-21T19:52:28.423Z,21.41
2022-08-21T19:54:58.807Z,21.39
2022-08-21T19:57:26.607Z,21.37
2022-08-21T19:59:54.376Z,21.25
2022-08-21T20:02:22.908Z,21.23
2022-08-21T20:04:53.281Z,21.15
2022-08-21T20:07:38.203Z,21.01
2022-08-21T20:10:08.550Z,21.00
2022-08-21T20:12:42.071Z,20.92
2022-08-21T20:15:10.355Z,20.90
2022-08-21T20:17:38.787Z,20.86
2022-08-21T20:20:07.780Z,20.86
2022-08-21T20:22:35.437Z,20.82
2022-08-21T20:25:03.106Z,20.75
2022-08-21T20:27:32.299Z,20.69
2022-08-21T20:30:10.094Z,20.61
2022-08-21T20:32:37.857Z,20.54
2022-08-21T20:37:58.496Z,20.39
2022-08-21T20:40:32.611Z,20.44
2022-08-21T20:43:02.939Z,20.44
2022-08-21T20:45:32.500Z,20.29
2022-08-21T20:48:05.191Z,20.23
2022-08-21T20:50:38.413Z,20.14
2022-08-21T20:53:12.380Z,20.15
2022-08-21T20:55:46.047Z,20.06
2022-08-21T20:58:29.722Z,20.07
2022-08-21T21:01:00.755Z,20.00
2022-08-21T21:03:35.034Z,19.98
2022-08-21T21:06:06.684Z,19.99
2022-08-21T21:08:40.760Z,20.01
2022-08-21T21:11:20.052Z,19.84
2022-08-21T21:13:54.245Z,19.81
2022-08-21T21:16:27.454Z,19.72
2022-08-21T21:18:56.245Z,19.63
2022-08-21T21:21:32.483Z,19.63
2022-08-21T21:24:03.542Z,19.54
2022-08-21T21:26:35.626Z,19.46
2022-08-21T21:29:13.002Z,19.55
2022-08-21T21:31:42.261Z,19.50
2022-08-21T21:34:17.227Z,19.69
2022-08-21T21:36:56.566Z,20.18
2022-08-21T21:39:36.425Z,20.09
2022-08-21T21:42:30.325Z,19.89
2022-08-21T21:45:13.386Z,19.85
2022-08-21T21:47:51.773Z,19.72
2022-08-21T21:50:31.289Z,19.58
2022-08-21T21:53:15.939Z,19.33
2022-08-21T21:56:01.922Z,19.28
2022-08-21T21:58:50.682Z,19.27
2022-08-21T22:01:25.153Z,19.22
2022-08-21T22:04:03.769Z,19.21
2022-08-21T22:06:40.422Z,19.19
2022-08-21T22:09:15.479Z,19.10
2022-08-21T22:11:58.901Z,19.02
2022-08-21T22:14:33.947Z,18.98
2022-08-21T22:17:09.460Z,18.86
2022-08-21T22:19:42.101Z,18.87
2022-08-21T22:22:15.805Z,18.83
2022-08-21T22:24:53.894Z,18.87
2022-08-21T22:27:24.518Z,18.76
2022-08-21T22:29:55.257Z,18.79
2022-08-21T22:32:28.794Z,18.84
2022-08-21T22:35:13.972Z,18.96
2022-08-21T22:37:46.697Z,18.78
2022-08-21T22:40:23.238Z,18.67
2022-08-21T22:43:03.031Z,18.61
2022-08-21T22:45:32.761Z,18.65
2022-08-21T22:48:11.318Z,18.63
2022-08-21T22:50:57.359Z,18.68
2022-08-21T22:53:30.370Z,18.68
2022-08-21T22:56:00.710Z,18.71
2022-08-21T22:58:31.511Z,18.80
2022-08-21T23:01:04.020Z,18.77
2022-08-21T23:03:43.458Z,18.91
2022-08-21T23:06:24.482Z,19.08
2022-08-21T23:08:53.998Z,18.90
2022-08-21T23:11:25.290Z,18.89
2022-08-21T23:13:56.615Z,18.82
2022-08-21T23:16:47.179Z,18.85
2022-08-21T23:19:28.730Z,18.86
2022-08-21T23:22:10.910Z,18.78
2022-08-21T23:24:51.780Z,18.78
2022-08-21T23:27:35.773Z,18.83
2022-08-21T23:30:09.544Z,18.89
2022-08-21T23:36:13.577Z,18.77
2022-08-21T23:38:54.586Z,18.86
2022-08-21T23:41:33.947Z,18.87
2022-08-21T23:44:17.942Z,18.99
2022-08-21T23:46:59.302Z,19.34
2022-08-21T23:49:44.030Z,19.39
2022-08-21T23:52:23.860Z,19.30
2022-08-21T23:55:12.047Z,19.11
2022-08-21T23:57:53.851Z,19.03
